createdAt,value
2022-08-31T00:00:35.699Z,0.00
2022-08-31T00:01:35.701Z,0.00
2022-08-31T00:02:35.733Z,0.00
2022-08-31T00:03:35.689Z,0.00
2022-08-31T00:04:35.703Z,0.00
2022-08-31T00:05:35.630Z,0.00
2022-08-31T00:06:35.629Z,0.00
2022-08-31T00:07:35.643Z,0.00
2022-08-31T00:08:35.633Z,0.00
2022-08-31T00:09:35.598Z,0.00
2022-08-31T00:10:37.109Z,0.00
2022-08-31T00:11:35.579Z,0.00
2022-08-31T00:12:35.567Z,0.00
2022-08-31T00:13:35.924Z,0.00
2022-08-31T00:14:35.535Z,0.00
2022-08-31T00:15:35.574Z,0.00
2022-08-31T00:16:35.558Z,0.00
2022-08-31T00:17:35.512Z,0.00
2022-08-31T00:18:35.503Z,0.00
2022-08-31T00:19:35.508Z,0.00
2022-08-31T00:20:35.470Z,0.00
2022-08-31T00:21:35.486Z,0.00
2022-08-31T00:22:35.445Z,0.00
2022-08-31T00:23:36.380Z,0.00
2022-08-31T00:24:35.444Z,0.00
2022-08-31T00:25:35.429Z,0.00
2022-08-31T00:26:35.410Z,0.00
2022-08-31T00:27:35.401Z,0.00
2022-08-31T00:28:35.388Z,0.00
2022-08-31T00:29:35.380Z,0.00
2022-08-31T00:30:35.383Z,0.00
2022-08-31T00:31:35.419Z,0.00
2022-08-31T00:32:35.333Z,0.00
2022-08-31T00:33:35.878Z,0.00
2022-08-31T00:34:35.316Z,0.00
2022-08-31T00:35:35.314Z,0.00
2022-08-31T00:36:35.316Z,0.00
2022-08-31T00:37:35.289Z,0.00
2022-08-31T00:38:35.288Z,0.00
2022-08-31T00:39:35.265Z,0.00
2022-08-31T00:40:44.240Z,0.00
2022-08-31T00:41:36.266Z,0.00
2022-08-31T00:42:35.231Z,0.00
2022-08-31T00:43:35.219Z,0.00
2022-08-31T00:44:35.213Z,0.00
2022-08-31T00:45:35.259Z,0.00
2022-08-31T00:46:35.176Z,0.00
2022-08-31T00:47:35.193Z,0.00
2022-08-31T00:48:35.169Z,0.00
2022-08-31T00:49:35.149Z,0.00
2022-08-31T00:50:35.152Z,0.00
2022-08-31T00:51:35.129Z,0.00
2022-08-31T00:52:37.803Z,0.00
2022-08-31T00:53:35.112Z,0.00
2022-08-31T00:54:35.102Z,0.00
2022-08-31T00:55:35.088Z,0.00
2022-08-31T00:56:35.084Z,0.00
2022-08-31T00:57:35.080Z,0.00
2022-08-31T00:58:35.048Z,0.00
2022-08-31T00:59:35.886Z,0.00
2022-08-31T01:00:35.032Z,0.00
2022-08-31T01:01:35.089Z,0.00
2022-08-31T01:02:35.449Z,0.00
2022-08-31T01:03:35.001Z,0.00
2022-08-31T01:04:34.981Z,0.00
2022-08-31T01:05:34.986Z,0.00
2022-08-31T01:06:34.971Z,0.00
2022-08-31T01:07:34.954Z,0.00
2022-08-31T01:08:34.966Z,0.00
2022-08-31T01:09:34.932Z,0.00
2022-08-31T01:10:34.919Z,0.00
2022-08-31T01:11:34.921Z,0.00
2022-08-31T01:12:35.880Z,0.00
2022-08-31T01:13:34.915Z,0.00
2022-08-31T01:14:35.380Z,0.00
2022-08-31T01:15:34.870Z,0.00
2022-08-31T01:16:34.915Z,0.00
2022-08-31T01:17:34.841Z,0.00
2022-08-31T01:18:34.835Z,0.00
2022-08-31T01:19:34.937Z,0.00
2022-08-31T01:20:41.374Z,0.00
2022-08-31T01:21:35.803Z,0.00
2022-08-31T01:22:34.786Z,0.00
2022-08-31T01:23:34.781Z,0.00
2022-08-31T01:24:34.760Z,0.00
2022-08-31T01:25:34.778Z,0.00
2022-08-31T01:26:35.380Z,0.00
2022-08-31T01:27:34.734Z,0.00
2022-08-31T01:28:34.727Z,0.00
2022-08-31T01:29:37.413Z,0.00
2022-08-31T01:30:34.719Z,0.00
2022-08-31T01:31:34.794Z,0.00
2022-08-31T01:32:34.675Z,0.00
2022-08-31T01:33:37.391Z,0.00
2022-08-31T01:34:34.646Z,0.00
2022-08-31T01:35:37.392Z,0.00
2022-08-31T01:36:34.914Z,0.00
2022-08-31T01:37:34.624Z,0.00
2022-08-31T01:38:34.604Z,0.00
2022-08-31T01:39:34.608Z,0.00
2022-08-31T01:40:34.687Z,0.00
2022-08-31T01:41:41.401Z,0.00
2022-08-31T01:42:34.645Z,0.00
2022-08-31T01:43:34.562Z,0.00
2022-08-31T01:44:34.540Z,0.00
2022-08-31T01:45:34.537Z,0.00
2022-08-31T01:46:34.557Z,0.00
2022-08-31T01:47:34.500Z,0.00
2022-08-31T01:48:34.527Z,0.00
2022-08-31T01:49:37.396Z,0.00
2022-08-31T01:50:34.479Z,0.00
2022-08-31T01:51:35.391Z,0.00
2022-08-31T01:52:34.449Z,0.00
2022-08-31T01:53:34.433Z,0.00
2022-08-31T01:54:36.448Z,0.00
2022-08-31T01:55:34.414Z,0.00
2022-08-31T01:56:34.412Z,0.00
2022-08-31T01:57:35.395Z,0.00
2022-08-31T01:58:34.415Z,0.00
2022-08-31T01:59:34.367Z,0.00
2022-08-31T02:00:34.378Z,0.00
2022-08-31T02:01:34.711Z,0.00
2022-08-31T02:02:34.405Z,0.00
2022-08-31T02:03:34.331Z,0.00
2022-08-31T02:04:34.450Z,0.00
2022-08-31T02:05:34.302Z,0.00
2022-08-31T02:06:34.320Z,0.00
2022-08-31T02:07:34.287Z,0.00
2022-08-31T02:08:34.285Z,0.00
2022-08-31T02:09:34.253Z,0.00
2022-08-31T02:10:34.277Z,0.00
2022-08-31T02:11:34.236Z,0.00
2022-08-31T02:12:40.899Z,0.00
2022-08-31T02:13:34.217Z,0.00
2022-08-31T02:14:34.436Z,0.00
2022-08-31T02:15:34.892Z,0.00
2022-08-31T02:16:34.312Z,0.00
2022-08-31T02:17:36.887Z,0.00
2022-08-31T02:18:34.161Z,0.00
2022-08-31T02:19:34.147Z,0.00
2022-08-31T02:20:34.906Z,0.00
2022-08-31T02:21:34.122Z,0.00
2022-08-31T02:22:34.431Z,0.00
2022-08-31T02:23:34.125Z,0.00
2022-08-31T02:24:34.094Z,0.00
2022-08-31T02:25:34.088Z,0.00
2022-08-31T02:26:36.898Z,0.00
2022-08-31T02:27:34.084Z,0.00
2022-08-31T02:28:34.067Z,0.00
2022-08-31T02:29:34.036Z,0.00
2022-08-31T02:30:34.021Z,0.00
2022-08-31T02:31:34.067Z,0.00
2022-08-31T02:32:34.020Z,0.00
2022-08-31T02:33:36.898Z,0.00
2022-08-31T02:34:33.984Z,0.00
2022-08-31T02:35:33.953Z,0.00
2022-08-31T02:36:35.777Z,0.00
2022-08-31T02:37:33.953Z,0.00
2022-08-31T02:38:33.951Z,0.00
2022-08-31T02:39:33.932Z,0.00
2022-08-31T02:40:33.950Z,0.00
2022-08-31T02:41:33.895Z,0.00
2022-08-31T02:42:40.849Z,0.00
2022-08-31T02:43:34.895Z,0.00
2022-08-31T02:44:33.902Z,0.00
2022-08-31T02:45:33.843Z,0.00
2022-08-31T02:46:33.859Z,0.00
2022-08-31T02:47:33.825Z,0.00
2022-08-31T02:48:33.824Z,0.00
2022-08-31T02:49:33.801Z,0.00
2022-08-31T02:50:33.822Z,0.00
2022-08-31T02:51:33.773Z,0.00
2022-08-31T02:52:33.930Z,0.00
2022-08-31T02:53:33.763Z,0.00
2022-08-31T02:54:33.737Z,0.00
2022-08-31T02:55:33.770Z,0.00
2022-08-31T02:56:33.729Z,0.00
2022-08-31T02:57:33.718Z,0.00
2022-08-31T02:58:33.702Z,0.00
2022-08-31T02:59:33.700Z,0.00
2022-08-31T03:00:33.681Z,0.00
2022-08-31T03:01:34.024Z,0.00
2022-08-31T03:02:33.858Z,0.00
2022-08-31T03:03:36.402Z,0.00
2022-08-31T03:04:33.663Z,0.00
2022-08-31T03:05:33.623Z,0.00
2022-08-31T03:06:33.618Z,0.00
2022-08-31T03:07:33.650Z,0.00
2022-08-31T03:08:36.401Z,0.00
2022-08-31T03:09:33.587Z,0.00
2022-08-31T03:10:33.577Z,0.00
2022-08-31T03:11:33.581Z,0.00
2022-08-31T03:12:33.547Z,0.00
2022-08-31T03:13:33.543Z,0.00
2022-08-31T03:14:33.542Z,0.00
2022-08-31T03:15:33.541Z,0.00
2022-08-31T03:16:33.499Z,0.00
2022-08-31T03:17:36.400Z,0.00
2022-08-31T03:18:33.514Z,0.00
2022-08-31T03:19:33.472Z,0.00
2022-08-31T03:20:34.506Z,0.00
2022-08-31T03:21:33.447Z,0.00
2022-08-31T03:22:33.465Z,0.00
2022-08-31T03:23:33.427Z,0.00
2022-08-31T03:24:33.416Z,0.00
2022-08-31T03:25:33.403Z,0.00
2022-08-31T03:26:33.420Z,0.00
2022-08-31T03:27:33.386Z,0.00
2022-08-31T03:28:33.442Z,0.00
2022-08-31T03:29:33.358Z,0.00
2022-08-31T03:30:33.354Z,0.00
2022-08-31T03:31:33.374Z,0.00
2022-08-31T03:32:33.330Z,0.00
2022-08-31T03:33:33.428Z,0.00
2022-08-31T03:34:33.314Z,0.00
2022-08-31T03:35:33.287Z,0.00
2022-08-31T03:36:33.285Z,0.00
2022-08-31T03:37:33.276Z,0.00
2022-08-31T03:38:33.277Z,0.00
2022-08-31T03:39:33.289Z,0.00
2022-08-31T03:40:33.264Z,0.00
2022-08-31T03:41:33.258Z,0.00
2022-08-31T03:42:33.316Z,0.00
2022-08-31T03:43:33.217Z,0.00
2022-08-31T03:44:33.319Z,0.00
2022-08-31T03:45:33.215Z,0.00
2022-08-31T03:46:54.187Z,0.00
2022-08-31T03:47:33.168Z,0.00
2022-08-31T03:48:33.153Z,0.00
2022-08-31T03:49:33.140Z,0.00
2022-08-31T03:50:33.153Z,0.00
2022-08-31T03:51:33.120Z,0.00
2022-08-31T03:52:33.139Z,0.00
2022-08-31T03:53:33.091Z,0.00
2022-08-31T03:54:33.086Z,0.00
2022-08-31T03:55:33.909Z,0.00
2022-08-31T03:56:33.093Z,0.00
2022-08-31T03:57:33.075Z,0.00
2022-08-31T03:58:33.049Z,0.00
2022-08-31T03:59:33.030Z,0.00
2022-08-31T04:00:47.906Z,0.00
2022-08-31T04:01:33.074Z,0.00
2022-08-31T04:02:37.497Z,0.00
2022-08-31T04:03:33.906Z,0.00
2022-08-31T04:04:32.992Z,0.00
2022-08-31T04:05:35.908Z,0.00
2022-08-31T04:06:32.962Z,0.00
2022-08-31T04:07:42.086Z,0.00
2022-08-31T04:08:33.926Z,0.00
2022-08-31T04:09:32.924Z,4.00
2022-08-31T04:10:32.921Z,4.00
2022-08-31T04:11:44.575Z,0.00
2022-08-31T04:12:33.942Z,0.00
2022-08-31T04:13:32.902Z,4.00
2022-08-31T04:14:35.415Z,4.00
2022-08-31T04:15:35.461Z,4.00
2022-08-31T04:16:32.840Z,4.00
2022-08-31T04:17:35.417Z,4.00
2022-08-31T04:18:32.843Z,4.00
2022-08-31T04:19:32.834Z,8.00
2022-08-31T04:20:32.818Z,8.00
2022-08-31T04:21:32.793Z,8.00
2022-08-31T04:22:32.777Z,12.00
2022-08-31T04:23:32.772Z,12.00
2022-08-31T04:24:32.937Z,16.00
2022-08-31T04:25:32.768Z,16.00
2022-08-31T04:26:32.738Z,20.00
2022-08-31T04:27:32.726Z,20.00
2022-08-31T04:28:32.729Z,24.00
2022-08-31T04:29:34.769Z,28.00
2022-08-31T04:30:32.686Z,32.00
2022-08-31T04:31:32.743Z,36.00
2022-08-31T04:32:32.675Z,40.00
2022-08-31T04:33:33.414Z,44.00
2022-08-31T04:34:32.675Z,44.00
2022-08-31T04:35:32.639Z,48.00
2022-08-31T04:36:32.634Z,52.00
2022-08-31T04:37:32.632Z,60.00
2022-08-31T04:38:32.599Z,64.00
2022-08-31T04:39:32.890Z,68.00
2022-08-31T04:40:32.614Z,72.00
2022-08-31T04:41:32.589Z,80.00
2022-08-31T04:42:32.547Z,88.00
2022-08-31T04:43:32.550Z,92.00
2022-08-31T04:44:35.407Z,96.00
2022-08-31T04:45:32.584Z,104.00
2022-08-31T04:46:32.505Z,108.00
2022-08-31T04:47:32.556Z,112.00
2022-08-31T04:48:32.490Z,124.00
2022-08-31T04:49:32.492Z,128.00
2022-08-31T04:50:32.476Z,128.00
2022-08-31T04:51:35.443Z,140.00
2022-08-31T04:52:32.442Z,144.00
2022-08-31T04:53:32.466Z,156.00
2022-08-31T04:54:32.425Z,168.00
2022-08-31T04:55:34.911Z,184.00
2022-08-31T04:56:32.407Z,192.00
2022-08-31T04:57:32.389Z,204.00
2022-08-31T04:58:34.915Z,224.00
2022-08-31T04:59:32.394Z,240.00
2022-08-31T05:00:32.347Z,256.00
2022-08-31T05:01:36.331Z,276.00
2022-08-31T05:02:33.542Z,300.00
2022-08-31T05:03:32.923Z,328.00
2022-08-31T05:04:38.909Z,356.00
2022-08-31T05:05:32.445Z,384.00
2022-08-31T05:06:32.923Z,412.00
2022-08-31T05:07:32.281Z,436.00
2022-08-31T05:08:32.268Z,448.00
2022-08-31T05:09:32.917Z,452.00
2022-08-31T05:10:32.446Z,444.00
2022-08-31T05:11:32.244Z,444.00
2022-08-31T05:12:32.242Z,440.00
2022-08-31T05:13:32.207Z,432.00
2022-08-31T05:14:32.191Z,424.00
2022-08-31T05:15:32.242Z,420.00
2022-08-31T05:16:34.933Z,416.00
2022-08-31T05:17:32.182Z,424.00
2022-08-31T05:18:32.182Z,428.00
2022-08-31T05:19:32.204Z,428.00
2022-08-31T05:20:32.132Z,436.00
2022-08-31T05:21:32.129Z,444.00
2022-08-31T05:22:32.116Z,456.00
2022-08-31T05:23:32.124Z,472.00
2022-08-31T05:24:32.088Z,488.00
2022-08-31T05:25:32.094Z,504.00
2022-08-31T05:26:32.075Z,520.00
2022-08-31T05:27:32.072Z,532.00
2022-08-31T05:28:33.073Z,544.00
2022-08-31T05:29:32.029Z,548.00
2022-08-31T05:30:32.084Z,556.00
2022-08-31T05:31:33.049Z,560.00
2022-08-31T05:32:32.001Z,572.00
2022-08-31T05:33:32.018Z,592.00
2022-08-31T05:34:32.007Z,608.00
2022-08-31T05:35:32.914Z,612.00
2022-08-31T05:36:31.955Z,620.00
2022-08-31T05:37:31.954Z,624.00
2022-08-31T05:38:31.959Z,636.00
2022-08-31T05:39:31.927Z,648.00
2022-08-31T05:40:32.469Z,656.00
2022-08-31T05:41:31.903Z,672.00
2022-08-31T05:42:31.910Z,692.00
2022-08-31T05:43:31.950Z,708.00
2022-08-31T05:44:34.414Z,732.00
2022-08-31T05:45:31.855Z,752.00
2022-08-31T05:46:31.858Z,768.00
2022-08-31T05:47:31.830Z,780.00
2022-08-31T05:48:31.847Z,788.00
2022-08-31T05:49:32.663Z,800.00
2022-08-31T05:50:31.800Z,816.00
2022-08-31T05:51:34.912Z,828.00
2022-08-31T05:52:33.416Z,848.00
2022-08-31T05:53:34.423Z,884.00
2022-08-31T05:54:31.770Z,920.00
2022-08-31T05:55:32.440Z,956.00
2022-08-31T05:56:31.766Z,996.00
2022-08-31T05:57:31.732Z,1036.00
2022-08-31T05:58:31.724Z,1084.00
2022-08-31T05:59:32.411Z,1136.00
2022-08-31T06:00:31.697Z,1196.00
2022-08-31T06:01:31.714Z,1248.00
2022-08-31T06:02:31.684Z,1292.00
2022-08-31T06:03:31.655Z,1328.00
2022-08-31T06:04:31.651Z,1360.00
2022-08-31T06:05:31.719Z,1392.00
2022-08-31T06:06:34.914Z,1424.00
2022-08-31T06:07:32.919Z,1452.00
2022-08-31T06:08:31.599Z,1476.00
2022-08-31T06:09:31.602Z,1504.00
2022-08-31T06:10:38.414Z,1540.00
2022-08-31T06:11:32.450Z,1580.00
2022-08-31T06:12:31.561Z,1620.00
2022-08-31T06:13:31.570Z,1656.00
2022-08-31T06:14:31.530Z,1696.00
2022-08-31T06:15:31.535Z,1736.00
2022-08-31T06:16:31.540Z,1780.00
2022-08-31T06:17:31.511Z,1820.00
2022-08-31T06:18:31.492Z,1868.00
2022-08-31T06:19:31.544Z,1928.00
2022-08-31T06:20:31.482Z,1992.00
2022-08-31T06:21:31.469Z,2064.00
2022-08-31T06:22:32.415Z,2152.00
2022-08-31T06:23:31.441Z,2240.00
2022-08-31T06:24:31.439Z,2328.00
2022-08-31T06:25:31.420Z,2440.00
2022-08-31T06:26:37.921Z,2580.00
2022-08-31T06:27:33.923Z,2708.00
2022-08-31T06:28:31.377Z,2784.00
2022-08-31T06:29:31.784Z,2820.00
2022-08-31T06:30:31.452Z,2836.00
2022-08-31T06:31:33.993Z,2852.00
2022-08-31T06:32:31.346Z,2888.00
2022-08-31T06:33:31.325Z,2948.00
2022-08-31T06:34:31.324Z,3032.00
2022-08-31T06:35:37.920Z,3160.00
2022-08-31T06:36:31.313Z,3304.00
2022-08-31T06:37:31.285Z,3408.00
2022-08-31T06:38:32.847Z,3464.00
2022-08-31T06:39:31.265Z,3476.00
2022-08-31T06:40:31.362Z,3484.00
2022-08-31T06:41:36.203Z,3512.00
2022-08-31T06:42:32.255Z,3552.00
2022-08-31T06:43:31.214Z,3604.00
2022-08-31T06:44:31.214Z,3648.00
2022-08-31T06:45:31.205Z,3696.00
2022-08-31T06:46:37.947Z,3712.00
2022-08-31T06:47:31.165Z,3756.00
2022-08-31T06:48:31.183Z,3632.00
2022-08-31T06:49:31.226Z,3516.00
2022-08-31T06:50:31.138Z,3400.00
2022-08-31T06:51:31.133Z,3280.00
2022-08-31T06:52:32.359Z,3152.00
2022-08-31T06:53:31.926Z,3028.00
2022-08-31T06:54:31.951Z,2924.00
2022-08-31T06:55:31.104Z,2856.00
2022-08-31T06:56:31.067Z,2916.00
2022-08-31T06:57:31.067Z,2836.00
2022-08-31T06:58:31.040Z,2884.00
2022-08-31T06:59:31.442Z,2884.00
2022-08-31T07:00:31.938Z,2872.00
2022-08-31T07:01:38.040Z,2848.00
2022-08-31T07:02:32.058Z,2804.00
2022-08-31T07:03:36.454Z,2724.00
2022-08-31T07:04:30.977Z,2740.00
2022-08-31T07:05:30.965Z,2660.00
2022-08-31T07:06:30.995Z,2604.00
2022-08-31T07:07:37.915Z,2568.00
2022-08-31T07:08:31.932Z,2548.00
2022-08-31T07:09:31.427Z,2540.00
2022-08-31T07:10:33.427Z,2508.00
2022-08-31T07:11:31.423Z,2472.00
2022-08-31T07:12:30.913Z,2452.00
2022-08-31T07:13:37.426Z,2436.00
2022-08-31T07:14:33.417Z,2424.00
2022-08-31T07:15:30.855Z,2424.00
2022-08-31T07:16:30.918Z,2432.00
2022-08-31T07:17:30.845Z,2440.00
2022-08-31T07:18:33.434Z,2436.00
2022-08-31T07:19:31.427Z,2416.00
2022-08-31T07:20:30.806Z,2380.00
2022-08-31T07:21:30.800Z,2408.00
2022-08-31T07:22:30.796Z,2440.00
2022-08-31T07:23:30.778Z,2448.00
2022-08-31T07:24:30.803Z,2436.00
2022-08-31T07:25:30.747Z,2416.00
2022-08-31T07:26:34.493Z,2416.00
2022-08-31T07:27:31.749Z,2428.00
2022-08-31T07:28:30.715Z,2428.00
2022-08-31T07:29:30.706Z,2428.00
2022-08-31T07:30:33.429Z,2404.00
2022-08-31T07:31:30.678Z,2400.00
2022-08-31T07:32:30.687Z,2412.00
2022-08-31T07:33:30.661Z,2456.00
2022-08-31T07:34:30.661Z,2500.00
2022-08-31T07:35:30.642Z,2536.00
2022-08-31T07:36:30.624Z,2580.00
2022-08-31T07:37:30.618Z,2636.00
2022-08-31T07:38:32.436Z,2680.00
2022-08-31T07:39:30.610Z,2692.00
2022-08-31T07:40:30.673Z,2708.00
2022-08-31T07:41:30.561Z,2736.00
2022-08-31T07:42:30.560Z,2752.00
2022-08-31T07:43:30.555Z,2744.00
2022-08-31T07:44:30.534Z,2716.00
2022-08-31T07:45:37.278Z,2680.00
2022-08-31T07:46:34.483Z,2660.00
2022-08-31T07:47:30.502Z,2628.00
2022-08-31T07:48:33.444Z,2600.00
2022-08-31T07:49:30.482Z,2580.00
2022-08-31T07:50:31.464Z,2556.00
2022-08-31T07:51:30.469Z,2520.00
2022-08-31T07:52:30.454Z,2504.00
2022-08-31T07:53:30.440Z,2504.00
2022-08-31T07:54:30.425Z,2500.00
2022-08-31T07:55:36.932Z,2488.00
2022-08-31T07:56:34.190Z,2484.00
2022-08-31T07:57:30.933Z,2484.00
2022-08-31T07:58:30.405Z,2492.00
2022-08-31T07:59:30.367Z,2492.00
2022-08-31T08:00:30.362Z,2504.00
2022-08-31T08:01:30.509Z,2516.00
2022-08-31T08:02:31.397Z,2532.00
2022-08-31T08:03:30.929Z,2564.00
2022-08-31T08:04:30.325Z,2592.00
2022-08-31T08:05:30.511Z,2616.00
2022-08-31T08:06:32.457Z,2640.00
2022-08-31T08:07:30.288Z,2656.00
2022-08-31T08:08:31.821Z,2684.00
2022-08-31T08:09:36.940Z,2716.00
2022-08-31T08:10:32.932Z,2732.00
2022-08-31T08:11:30.463Z,2792.00
2022-08-31T08:12:30.226Z,2836.00
2022-08-31T08:13:30.235Z,2844.00
2022-08-31T08:14:30.399Z,2840.00
2022-08-31T08:15:30.215Z,2928.00
2022-08-31T08:16:30.271Z,2932.00
2022-08-31T08:17:30.172Z,2936.00
2022-08-31T08:18:30.456Z,2924.00
2022-08-31T08:19:30.155Z,2936.00
2022-08-31T08:20:34.273Z,2948.00
2022-08-31T08:21:31.125Z,2932.00
2022-08-31T08:22:50.845Z,2944.00
2022-08-31T08:23:31.121Z,2968.00
2022-08-31T08:24:30.095Z,3000.00
2022-08-31T08:25:30.076Z,3068.00
2022-08-31T08:26:30.081Z,3112.00
2022-08-31T08:27:30.076Z,3180.00
2022-08-31T08:28:42.853Z,3232.00
2022-08-31T08:29:33.942Z,3324.00
2022-08-31T08:30:30.036Z,3336.00
2022-08-31T08:31:30.086Z,3320.00
2022-08-31T08:32:31.978Z,3284.00
2022-08-31T08:33:29.997Z,3284.00
2022-08-31T08:34:32.933Z,3268.00
2022-08-31T08:35:29.969Z,3340.00
2022-08-31T08:36:29.972Z,3332.00
2022-08-31T08:37:54.375Z,3500.00
2022-08-31T08:38:30.964Z,3576.00
2022-08-31T08:39:29.946Z,3660.00
2022-08-31T08:40:30.043Z,3720.00
2022-08-31T08:41:30.446Z,3756.00
2022-08-31T08:42:29.893Z,3792.00
2022-08-31T08:43:31.059Z,3844.00
2022-08-31T08:44:29.870Z,3972.00
2022-08-31T08:45:30.076Z,4104.00
2022-08-31T08:46:35.812Z,4260.00
2022-08-31T08:47:34.381Z,4384.00
2022-08-31T08:48:30.830Z,4456.00
2022-08-31T08:49:30.444Z,4508.00
2022-08-31T08:50:29.825Z,4500.00
2022-08-31T08:51:32.437Z,4556.00
2022-08-31T08:52:29.785Z,4652.00
2022-08-31T08:53:32.442Z,4752.00
2022-08-31T08:54:29.766Z,4816.00
2022-08-31T08:55:29.770Z,4800.00
2022-08-31T08:56:33.845Z,4708.00
2022-08-31T08:57:29.758Z,4608.00
2022-08-31T08:58:30.443Z,4552.00
2022-08-31T08:59:29.714Z,4528.00
2022-08-31T09:00:29.718Z,4496.00
2022-08-31T09:01:32.469Z,4476.00
2022-08-31T09:02:29.705Z,4416.00
2022-08-31T09:03:29.671Z,4336.00
2022-08-31T09:04:29.666Z,4252.00
2022-08-31T09:05:29.647Z,4204.00
2022-08-31T09:06:32.150Z,4236.00
2022-08-31T09:07:30.611Z,4324.00
2022-08-31T09:08:29.997Z,4440.00
2022-08-31T09:09:29.598Z,4564.00
2022-08-31T09:10:32.444Z,4664.00
2022-08-31T09:11:32.451Z,4756.00
2022-08-31T09:12:29.575Z,4808.00
2022-08-31T09:13:29.536Z,4764.00
2022-08-31T09:14:29.586Z,4660.00
2022-08-31T09:15:29.524Z,4520.00
2022-08-31T09:16:29.566Z,4372.00
2022-08-31T09:17:51.444Z,4228.00
2022-08-31T09:18:29.489Z,4108.00
2022-08-31T09:19:29.480Z,3996.00
2022-08-31T09:20:31.467Z,3824.00
2022-08-31T09:21:29.494Z,3640.00
2022-08-31T09:22:29.966Z,3448.00
2022-08-31T09:23:29.474Z,3248.00
2022-08-31T09:24:29.422Z,3088.00
2022-08-31T09:25:29.417Z,2968.00
2022-08-31T09:26:29.394Z,2864.00
2022-08-31T09:27:29.960Z,2816.00
2022-08-31T09:28:29.381Z,2796.00
2022-08-31T09:29:29.471Z,2788.00
2022-08-31T09:30:29.951Z,2660.00
2022-08-31T09:31:29.408Z,2624.00
2022-08-31T09:32:29.354Z,2696.00
2022-08-31T09:33:29.337Z,2620.00
2022-08-31T09:34:29.304Z,2588.00
2022-08-31T09:35:29.290Z,2564.00
2022-08-31T09:36:29.294Z,2548.00
2022-08-31T09:37:29.277Z,2860.00
2022-08-31T09:38:29.287Z,2828.00
2022-08-31T09:39:29.247Z,3052.00
2022-08-31T09:40:30.298Z,3364.00
2022-08-31T09:41:29.945Z,3336.00
2022-08-31T09:42:29.222Z,2924.00
2022-08-31T09:43:35.947Z,3216.00
2022-08-31T09:44:29.491Z,2584.00
2022-08-31T09:45:29.223Z,3020.00
2022-08-31T09:46:35.942Z,2664.00
2022-08-31T09:47:29.169Z,3128.00
2022-08-31T09:48:29.951Z,3092.00
2022-08-31T09:49:29.137Z,3080.00
2022-08-31T09:50:29.154Z,3108.00
2022-08-31T09:51:29.984Z,3092.00
2022-08-31T09:52:29.102Z,3020.00
2022-08-31T09:53:29.098Z,3052.00
2022-08-31T09:54:50.953Z,3100.00
2022-08-31T09:56:40.060Z,3124.00
2022-08-31T09:57:42.530Z,3144.00
2022-08-31T09:58:39.845Z,3140.00
2022-08-31T09:59:39.820Z,3172.00
2022-08-31T10:00:39.822Z,3156.00
2022-08-31T10:01:39.918Z,3136.00
2022-08-31T10:02:39.778Z,3160.00
2022-08-31T10:03:39.781Z,3168.00
2022-08-31T10:04:40.609Z,3156.00
2022-08-31T10:05:39.752Z,3128.00
2022-08-31T10:06:39.772Z,3112.00
2022-08-31T10:07:39.746Z,3016.00
2022-08-31T10:08:39.752Z,2868.00
2022-08-31T10:09:39.706Z,2908.00
2022-08-31T10:10:40.543Z,2728.00
2022-08-31T10:11:39.686Z,2836.00
2022-08-31T10:12:39.685Z,3040.00
2022-08-31T10:13:39.681Z,3116.00
2022-08-31T10:14:39.657Z,3084.00
2022-08-31T10:15:39.777Z,3108.00
2022-08-31T10:16:39.637Z,3152.00
2022-08-31T10:17:39.639Z,3136.00
2022-08-31T10:18:39.711Z,3108.00
2022-08-31T10:19:46.536Z,3116.00
2022-08-31T10:20:39.582Z,3200.00
2022-08-31T10:21:39.561Z,3260.00
2022-08-31T10:22:40.530Z,3312.00
2022-08-31T10:23:39.563Z,3344.00
2022-08-31T10:24:39.569Z,3372.00
2022-08-31T10:25:39.545Z,3392.00
2022-08-31T10:26:39.512Z,3460.00
2022-08-31T10:27:39.535Z,3448.00
2022-08-31T10:28:39.509Z,3480.00
2022-08-31T10:29:39.515Z,3532.00
2022-08-31T10:30:40.216Z,3680.00
2022-08-31T10:31:39.480Z,3792.00
2022-08-31T10:32:46.038Z,4008.00
2022-08-31T10:33:39.465Z,4288.00
2022-08-31T10:34:39.444Z,4500.00
2022-08-31T10:35:39.563Z,4708.00
2022-08-31T10:36:39.429Z,4964.00
2022-08-31T10:37:39.395Z,5116.00
2022-08-31T10:38:39.397Z,5272.00
2022-08-31T10:39:39.380Z,5228.00
2022-08-31T10:40:39.690Z,5092.00
2022-08-31T10:41:39.373Z,4932.00
2022-08-31T10:42:39.342Z,4872.00
2022-08-31T10:43:39.335Z,4888.00
2022-08-31T10:44:39.322Z,4804.00
2022-08-31T10:50:51.086Z,5496.00
2022-08-31T10:51:22.949Z,5652.00
2022-08-31T10:52:22.940Z,5768.00
2022-08-31T10:53:22.963Z,5788.00
2022-08-31T10:54:22.932Z,5896.00
2022-08-31T10:55:22.898Z,5912.00
2022-08-31T10:56:24.063Z,5716.00
2022-08-31T10:57:25.913Z,5624.00
2022-08-31T10:58:23.702Z,5620.00
2022-08-31T10:59:22.882Z,5272.00
2022-08-31T11:00:22.857Z,4996.00
2022-08-31T11:01:23.707Z,5180.00
2022-08-31T11:02:22.839Z,5480.00
2022-08-31T11:03:25.668Z,5244.00
2022-08-31T11:04:22.943Z,5288.00
2022-08-31T11:05:22.803Z,5628.00
2022-08-31T11:06:22.790Z,6268.00
2022-08-31T11:07:25.649Z,6608.00
2022-08-31T11:08:22.764Z,6620.00
2022-08-31T11:09:23.650Z,6292.00
2022-08-31T11:10:22.749Z,5876.00
2022-08-31T11:11:22.765Z,5552.00
2022-08-31T11:12:22.729Z,5420.00
2022-08-31T11:13:22.749Z,5284.00
2022-08-31T11:14:22.743Z,5328.00
2022-08-31T11:15:22.684Z,5540.00
2022-08-31T11:16:22.723Z,5732.00
2022-08-31T11:17:22.676Z,5340.00
2022-08-31T11:18:22.659Z,5868.00
2022-08-31T11:19:22.673Z,5832.00
2022-08-31T11:20:22.628Z,6256.00
2022-08-31T11:21:22.637Z,6476.00
2022-08-31T11:22:23.142Z,7436.00
2022-08-31T11:23:23.631Z,7680.00
2022-08-31T11:24:22.632Z,6368.00
2022-08-31T11:25:22.607Z,6376.00
2022-08-31T11:26:22.595Z,5832.00
2022-08-31T11:27:22.558Z,5384.00
2022-08-31T11:28:22.577Z,6128.00
2022-08-31T11:29:22.530Z,5952.00
2022-08-31T11:30:22.523Z,6432.00
2022-08-31T11:31:22.541Z,7436.00
2022-08-31T11:32:22.503Z,7464.00
2022-08-31T11:33:23.149Z,7068.00
2022-08-31T11:34:22.480Z,6328.00
2022-08-31T11:35:22.475Z,5744.00
2022-08-31T11:36:22.458Z,5328.00
2022-08-31T11:37:22.459Z,5088.00
2022-08-31T11:38:22.414Z,5032.00
2022-08-31T11:39:22.428Z,5016.00
2022-08-31T11:40:22.454Z,5096.00
2022-08-31T11:41:22.411Z,5220.00
2022-08-31T11:42:22.388Z,4948.00
2022-08-31T11:43:22.409Z,4784.00
2022-08-31T11:44:22.372Z,4808.00
2022-08-31T11:45:22.359Z,4928.00
2022-08-31T11:46:22.439Z,4908.00
2022-08-31T11:47:22.350Z,4856.00
2022-08-31T11:48:22.329Z,4728.00
2022-08-31T11:49:22.317Z,4748.00
2022-08-31T11:50:22.320Z,4796.00
2022-08-31T11:51:22.285Z,5496.00
2022-08-31T11:52:22.305Z,6692.00
2022-08-31T11:53:22.280Z,5004.00
2022-08-31T11:54:22.255Z,4880.00
2022-08-31T11:55:22.258Z,5860.00
2022-08-31T11:56:22.255Z,6420.00
2022-08-31T11:57:22.273Z,6700.00
2022-08-31T11:58:22.212Z,6740.00
2022-08-31T11:59:22.198Z,6640.00
2022-08-31T12:00:22.192Z,6572.00
2022-08-31T12:01:22.177Z,6436.00
2022-08-31T12:02:22.216Z,6340.00
2022-08-31T12:03:22.186Z,6060.00
2022-08-31T12:04:22.254Z,5796.00
2022-08-31T12:05:22.161Z,5628.00
2022-08-31T12:06:28.668Z,5632.00
2022-08-31T12:07:22.123Z,5676.00
2022-08-31T12:08:22.116Z,5596.00
2022-08-31T12:09:22.109Z,5824.00
2022-08-31T12:10:26.675Z,6016.00
2022-08-31T12:11:25.661Z,5476.00
2022-08-31T12:12:22.139Z,4952.00
2022-08-31T12:13:36.668Z,6232.00
2022-08-31T12:14:24.706Z,6120.00
2022-08-31T12:15:24.603Z,6068.00
2022-08-31T12:16:36.688Z,6120.00
2022-08-31T12:17:22.814Z,6284.00
2022-08-31T12:18:21.998Z,6464.00
2022-08-31T12:19:21.993Z,6728.00
2022-08-31T12:20:21.977Z,6816.00
2022-08-31T12:21:21.954Z,6776.00
2022-08-31T12:22:21.971Z,5300.00
2022-08-31T12:23:30.644Z,6940.00
2022-08-31T12:24:23.005Z,6648.00
2022-08-31T12:25:21.927Z,6668.00
2022-08-31T12:26:21.920Z,6840.00
2022-08-31T12:27:21.902Z,6980.00
2022-08-31T12:28:23.055Z,7108.00
2022-08-31T12:29:22.870Z,7280.00
2022-08-31T12:30:21.888Z,7328.00
2022-08-31T12:31:21.960Z,7320.00
2022-08-31T12:32:21.859Z,7408.00
2022-08-31T12:33:28.657Z,7336.00
2022-08-31T12:34:23.693Z,7400.00
2022-08-31T12:35:21.809Z,7508.00
2022-08-31T12:36:22.674Z,7520.00
2022-08-31T12:37:21.790Z,7584.00
2022-08-31T12:38:21.788Z,4588.00
2022-08-31T12:39:22.670Z,5944.00